createdAt,value
2022-11-01T05:56:29.757Z,52.00
2022-11-01T06:01:50.834Z,51.67
2022-11-01T06:07:12.043Z,56.20
2022-11-01T06:12:33.068Z,54.08
2022-11-01T06:17:58.454Z,50.55
2022-11-01T06:23:19.454Z,50.15
2022-11-01T06:28:40.510Z,54.35
2022-11-01T06:39:21.652Z,50.38
2022-11-01T06:44:42.661Z,47.38
2022-11-01T06:50:04.619Z,49.63
2022-11-01T06:55:27.216Z,46.63
2022-11-01T07:00:47.964Z,51.75
2022-11-01T07:06:08.801Z,47.97
2022-11-01T07:11:31.693Z,40.17
2022-11-01T07:16:53.162Z,41.05
2022-11-01T07:22:14.818Z,46.00
2022-11-01T07:27:36.847Z,41.22
2022-11-01T07:33:04.173Z,42.65
2022-11-01T07:38:25.502Z,38.97
2022-11-01T07:43:46.270Z,42.10
2022-11-01T07:49:07.183Z,43.67
2022-11-01T07:54:28.016Z,35.22
2022-11-01T07:59:48.827Z,40.53
2022-11-01T08:05:11.302Z,42.65
2022-11-01T08:10:33.137Z,37.30
2022-11-01T08:15:54.290Z,35.85
2022-11-01T08:21:18.770Z,34.42
2022-11-01T08:26:39.693Z,35.10
2022-11-01T08:32:00.499Z,33.65
2022-11-01T08:37:21.183Z,35.92
2022-11-01T08:42:42.066Z,32.40
2022-11-01T08:53:26.108Z,31.42
2022-11-01T08:58:49.378Z,33.50
2022-11-01T09:04:10.462Z,33.50
2022-11-01T09:09:31.375Z,34.13
2022-11-01T09:14:52.569Z,31.05
2022-11-01T09:20:15.214Z,34.63
2022-11-01T09:25:36.985Z,29.90
2022-11-01T09:31:19.544Z,29.42
2022-11-01T09:36:41.569Z,34.92
2022-11-01T09:42:06.447Z,32.65
2022-11-01T09:47:29.981Z,28.48
2022-11-01T09:52:53.007Z,30.17
2022-11-01T09:58:28.355Z,27.58
2022-11-01T10:04:26.846Z,31.25
2022-11-01T10:10:02.510Z,26.00
2022-11-01T10:15:32.368Z,26.60
2022-11-01T10:20:55.800Z,28.40
2022-11-01T10:26:21.450Z,25.92
2022-11-01T10:31:46.328Z,23.02
2022-11-01T10:37:22.715Z,30.25
2022-11-01T10:42:43.802Z,28.73
2022-11-01T10:48:05.345Z,22.58
2022-11-01T10:53:31.479Z,22.63
2022-11-01T10:59:04.487Z,23.83
2022-11-01T11:04:26.227Z,24.98
2022-11-01T11:09:50.162Z,16.80
2022-11-01T11:15:19.631Z,23.48
2022-11-01T11:20:41.129Z,24.77
2022-11-01T11:26:05.067Z,23.25
2022-11-01T11:31:32.614Z,22.45
2022-11-01T11:36:55.103Z,18.00
2022-11-01T11:42:16.071Z,23.90
2022-11-01T11:47:38.216Z,24.42
2022-11-01T11:53:15.602Z,18.65
2022-11-01T11:58:43.088Z,19.27
2022-11-01T12:04:19.145Z,23.13
2022-11-01T12:09:46.870Z,19.55
2022-11-01T12:15:29.934Z,17.10
2022-11-01T12:20:52.773Z,17.17
2022-11-01T12:26:16.855Z,15.88
2022-11-01T12:31:41.666Z,15.38
2022-11-01T12:37:41.485Z,12.93
2022-11-01T12:43:16.531Z,21.80
2022-11-01T12:48:43.072Z,16.35
2022-11-01T12:54:15.014Z,14.75
2022-11-01T12:59:38.665Z,17.50
2022-11-01T13:05:30.561Z,14.77
2022-11-01T13:10:52.844Z,12.48
2022-11-01T13:16:27.738Z,16.65
2022-11-01T13:22:38.019Z,9.60
2022-11-01T13:28:36.039Z,11.77
2022-11-01T13:34:33.576Z,12.95
2022-11-01T13:39:54.651Z,10.05
2022-11-01T13:45:30.599Z,11.07
2022-11-01T13:51:11.533Z,12.25
2022-11-01T13:56:40.203Z,10.90
2022-11-01T14:02:22.977Z,9.13
2022-11-01T14:07:43.964Z,13.90
2022-11-01T14:13:07.864Z,14.18
2022-11-01T14:18:49.884Z,11.90
2022-11-01T14:24:34.830Z,9.88
2022-11-01T14:29:56.819Z,11.05
2022-11-01T14:35:37.992Z,17.63
2022-11-01T14:41:00.317Z,13.73
2022-11-01T14:46:31.541Z,13.70
2022-11-01T14:52:02.786Z,10.05
2022-11-01T14:57:29.369Z,13.45
2022-11-01T15:02:50.688Z,12.50
2022-11-01T15:08:22.456Z,10.52
2022-11-01T15:13:45.602Z,10.90
2022-11-01T15:19:14.922Z,11.57
2022-11-01T15:24:36.010Z,9.93
2022-11-01T15:29:56.937Z,16.50
2022-11-01T15:35:26.374Z,17.15
2022-11-01T15:40:50.389Z,15.63
2022-11-01T15:46:11.492Z,11.63
2022-11-01T15:51:37.558Z,13.80
2022-11-01T15:57:03.253Z,13.50
2022-11-01T16:02:35.287Z,14.73
2022-11-01T16:07:56.559Z,14.70
2022-11-01T16:13:19.907Z,23.08
2022-11-01T16:18:45.126Z,14.60
2022-11-01T16:24:09.598Z,13.75
2022-11-01T16:29:42.673Z,16.20
2022-11-01T16:35:29.508Z,14.98
2022-11-01T16:40:54.996Z,16.60
2022-11-01T16:46:16.119Z,18.73
2022-11-01T16:51:36.986Z,13.80
2022-11-01T16:56:58.685Z,15.48
2022-11-01T17:02:23.782Z,18.00
2022-11-01T17:07:45.563Z,19.02
2022-11-01T17:13:07.934Z,18.35
2022-11-01T17:18:31.991Z,20.63
2022-11-01T17:23:53.277Z,19.45
2022-11-01T17:29:16.993Z,17.90
2022-11-01T17:34:38.879Z,19.75
2022-11-01T17:40:01.017Z,18.92
2022-11-01T17:45:22.855Z,17.35
2022-11-01T17:50:44.514Z,18.92
2022-11-01T17:56:06.462Z,15.02
2022-11-01T18:01:28.652Z,16.83
2022-11-01T18:06:50.501Z,18.73
2022-11-01T18:12:39.477Z,85.63
2022-11-01T18:18:15.589Z,22.33
2022-11-01T18:23:36.889Z,15.05
2022-11-01T18:29:10.259Z,18.55
2022-11-01T18:34:50.077Z,16.55
2022-11-01T18:40:11.490Z,13.85
2022-11-01T18:45:57.699Z,14.43
2022-11-01T18:51:26.616Z,17.40
2022-11-01T18:56:51.206Z,17.17
2022-11-01T19:02:12.406Z,15.82
2022-11-01T19:07:57.118Z,17.02
2022-11-01T19:13:23.730Z,18.60
2022-11-01T19:18:46.176Z,15.03
2022-11-01T19:24:29.771Z,12.82
2022-11-01T19:29:55.381Z,17.05
2022-11-01T19:35:22.084Z,17.60
2022-11-01T19:40:44.126Z,16.35
2022-11-01T19:46:04.935Z,16.27
2022-11-01T19:51:26.645Z,13.38
2022-11-01T19:56:47.630Z,17.33
2022-11-01T20:02:22.582Z,13.77
2022-11-01T20:07:43.535Z,19.13
2022-11-01T20:13:04.780Z,19.63
2022-11-01T20:18:26.993Z,13.30
2022-11-01T20:23:48.336Z,14.35
2022-11-01T20:29:09.565Z,15.98
2022-11-01T20:34:30.534Z,16.15
2022-11-01T20:39:51.640Z,13.10
2022-11-01T20:45:12.567Z,11.25
2022-11-01T20:50:33.999Z,20.90
2022-11-01T20:55:54.831Z,24.63
2022-11-01T21:06:37.211Z,14.13
2022-11-01T21:11:59.043Z,12.18
2022-11-01T21:17:20.345Z,17.58
2022-11-01T21:22:41.283Z,15.70
2022-11-01T21:28:12.108Z,10.05
2022-11-01T21:33:41.665Z,14.25
2022-11-01T21:39:11.187Z,16.02
2022-11-01T21:44:39.743Z,12.70
2022-11-01T21:50:00.802Z,14.10
2022-11-01T22:00:42.226Z,9.25
2022-11-01T22:06:03.115Z,12.10
2022-11-01T22:16:50.109Z,15.82
2022-11-01T22:22:11.138Z,20.88
